sensor_id;sensor_type;location;lat;lon;timestamp;P1;durP1;ratioP1;P2;durP2;ratioP2
1467;SDS011;727;48.892;9.544;2023-01-26T00:02:19;26.63;;;16.38;;
1467;SDS011;727;48.892;9.544;2023-01-26T00:04:46;25.92;;;15.32;;
1467;SDS011;727;48.892;9.544;2023-01-26T00:07:14;28.10;;;16.52;;
1467;SDS011;727;48.892;9.544;2023-01-26T00:09:41;28.77;;;17.35;;
1467;SDS011;727;48.892;9.544;2023-01-26T00:12:08;27.50;;;16.55;;
1467;SDS011;727;48.892;9.544;2023-01-26T00:14:35;40.83;;;22.35;;
1467;SDS011;727;48.892;9.544;2023-01-26T00:17:18;34.53;;;21.75;;
1467;SDS011;727;48.892;9.544;2023-01-26T00:19:53;31.63;;;16.58;;
1467;SDS011;727;48.892;9.544;2023-01-26T00:22:23;29.13;;;17.55;;
1467;SDS011;727;48.892;9.544;2023-01-26T00:24:50;41.63;;;22.38;;
1467;SDS011;727;48.892;9.544;2023-01-26T00:27:17;40.13;;;22.15;;
1467;SDS011;727;48.892;9.544;2023-01-26T00:29:44;28.17;;;19.13;;
1467;SDS011;727;48.892;9.544;2023-01-26T00:32:11;49.17;;;24.77;;
1467;SDS011;727;48.892;9.544;2023-01-26T00:34:38;37.47;;;19.63;;
1467;SDS011;727;48.892;9.544;2023-01-26T00:37:04;30.30;;;19.35;;
1467;SDS011;727;48.892;9.544;2023-01-26T00:39:33;29.45;;;19.15;;
1467;SDS011;727;48.892;9.544;2023-01-26T00:42:00;28.55;;;18.50;;
1467;SDS011;727;48.892;9.544;2023-01-26T00:44:34;28.85;;;19.13;;
1467;SDS011;727;48.892;9.544;2023-01-26T00:47:02;27.95;;;17.52;;
1467;SDS011;727;48.892;9.544;2023-01-26T00:49:29;29.63;;;17.73;;
1467;SDS011;727;48.892;9.544;2023-01-26T00:51:56;31.63;;;18.58;;
1467;SDS011;727;48.892;9.544;2023-01-26T00:54:23;35.20;;;20.80;;
1467;SDS011;727;48.892;9.544;2023-01-26T00:56:51;27.98;;;19.15;;
1467;SDS011;727;48.892;9.544;2023-01-26T00:59:18;39.17;;;22.65;;
1467;SDS011;727;48.892;9.544;2023-01-26T01:01:45;28.48;;;19.20;;
1467;SDS011;727;48.892;9.544;2023-01-26T01:04:12;30.13;;;19.42;;
1467;SDS011;727;48.892;9.544;2023-01-26T01:06:39;28.00;;;18.38;;
1467;SDS011;727;48.892;9.544;2023-01-26T01:09:06;28.50;;;18.20;;
1467;SDS011;727;48.892;9.544;2023-01-26T01:11:33;33.25;;;19.13;;
1467;SDS011;727;48.892;9.544;2023-01-26T01:14:02;29.80;;;19.15;;
1467;SDS011;727;48.892;9.544;2023-01-26T01:16:28;26.92;;;18.30;;
1467;SDS011;727;48.892;9.544;2023-01-26T01:18:55;29.33;;;18.45;;
1467;SDS011;727;48.892;9.544;2023-01-26T01:21:23;24.80;;;18.63;;
1467;SDS011;727;48.892;9.544;2023-01-26T01:23:51;30.67;;;18.58;;
1467;SDS011;727;48.892;9.544;2023-01-26T01:26:18;25.85;;;19.20;;
1467;SDS011;727;48.892;9.544;2023-01-26T01:28:45;26.60;;;17.55;;
1467;SDS011;727;48.892;9.544;2023-01-26T01:31:14;27.60;;;19.05;;
1467;SDS011;727;48.892;9.544;2023-01-26T01:33:42;30.67;;;19.25;;
1467;SDS011;727;48.892;9.544;2023-01-26T01:36:10;30.95;;;18.83;;
1467;SDS011;727;48.892;9.544;2023-01-26T01:38:38;26.02;;;17.65;;
1467;SDS011;727;48.892;9.544;2023-01-26T01:41:06;26.52;;;17.23;;
1467;SDS011;727;48.892;9.544;2023-01-26T01:43:33;29.52;;;18.13;;
1467;SDS011;727;48.892;9.544;2023-01-26T01:46:01;32.38;;;18.60;;
1467;SDS011;727;48.892;9.544;2023-01-26T01:48:36;29.45;;;18.45;;
1467;SDS011;727;48.892;9.544;2023-01-26T01:51:11;31.60;;;18.67;;
1467;SDS011;727;48.892;9.544;2023-01-26T01:53:42;29.88;;;19.30;;
1467;SDS011;727;48.892;9.544;2023-01-26T01:56:13;32.20;;;20.40;;
1467;SDS011;727;48.892;9.544;2023-01-26T01:58:45;31.77;;;19.77;;
1467;SDS011;727;48.892;9.544;2023-01-26T02:01:15;30.48;;;19.23;;
1467;SDS011;727;48.892;9.544;2023-01-26T02:03:43;32.53;;;19.63;;
1467;SDS011;727;48.892;9.544;2023-01-26T02:06:12;31.58;;;20.25;;
1467;SDS011;727;48.892;9.544;2023-01-26T02:08:42;30.77;;;19.90;;
1467;SDS011;727;48.892;9.544;2023-01-26T02:11:12;30.98;;;18.42;;
1467;SDS011;727;48.892;9.544;2023-01-26T02:13:42;32.13;;;19.35;;
1467;SDS011;727;48.892;9.544;2023-01-26T02:16:13;26.67;;;16.55;;
1467;SDS011;727;48.892;9.544;2023-01-26T02:18:40;27.80;;;17.48;;
1467;SDS011;727;48.892;9.544;2023-01-26T02:21:09;31.77;;;19.17;;
1467;SDS011;727;48.892;9.544;2023-01-26T02:23:41;34.80;;;19.55;;
1467;SDS011;727;48.892;9.544;2023-01-26T02:26:18;33.45;;;21.20;;
1467;SDS011;727;48.892;9.544;2023-01-26T02:28:46;30.20;;;18.60;;
1467;SDS011;727;48.892;9.544;2023-01-26T02:31:14;31.75;;;18.95;;
1467;SDS011;727;48.892;9.544;2023-01-26T02:33:41;28.23;;;17.08;;
1467;SDS011;727;48.892;9.544;2023-01-26T02:36:09;28.25;;;17.50;;
1467;SDS011;727;48.892;9.544;2023-01-26T02:38:45;28.45;;;17.73;;
1467;SDS011;727;48.892;9.544;2023-01-26T02:41:18;29.73;;;16.95;;
1467;SDS011;727;48.892;9.544;2023-01-26T02:43:59;26.73;;;17.42;;
1467;SDS011;727;48.892;9.544;2023-01-26T02:46:26;26.45;;;15.25;;
1467;SDS011;727;48.892;9.544;2023-01-26T02:48:53;29.75;;;18.80;;
1467;SDS011;727;48.892;9.544;2023-01-26T02:51:37;31.15;;;19.88;;
1467;SDS011;727;48.892;9.544;2023-01-26T02:54:04;30.08;;;17.55;;
1467;SDS011;727;48.892;9.544;2023-01-26T02:56:32;25.27;;;16.92;;
1467;SDS011;727;48.892;9.544;2023-01-26T02:59:03;28.60;;;18.75;;
1467;SDS011;727;48.892;9.544;2023-01-26T03:01:30;33.38;;;18.88;;
1467;SDS011;727;48.892;9.544;2023-01-26T03:03:57;28.45;;;17.38;;
1467;SDS011;727;48.892;9.544;2023-01-26T03:06:23;28.15;;;17.40;;
1467;SDS011;727;48.892;9.544;2023-01-26T03:08:50;30.55;;;19.75;;
1467;SDS011;727;48.892;9.544;2023-01-26T03:11:17;29.98;;;18.90;;
1467;SDS011;727;48.892;9.544;2023-01-26T03:13:48;27.60;;;19.48;;
1467;SDS011;727;48.892;9.544;2023-01-26T03:16:14;26.98;;;17.02;;
1467;SDS011;727;48.892;9.544;2023-01-26T03:18:42;25.55;;;17.35;;
1467;SDS011;727;48.892;9.544;2023-01-26T03:21:26;32.13;;;17.98;;
1467;SDS011;727;48.892;9.544;2023-01-26T03:24:11;33.40;;;17.58;;
1467;SDS011;727;48.892;9.544;2023-01-26T03:26:55;33.60;;;18.60;;
1467;SDS011;727;48.892;9.544;2023-01-26T03:29:41;30.42;;;17.30;;
1467;SDS011;727;48.892;9.544;2023-01-26T03:32:08;29.60;;;19.60;;
1467;SDS011;727;48.892;9.544;2023-01-26T03:34:35;34.40;;;20.63;;
1467;SDS011;727;48.892;9.544;2023-01-26T03:37:01;39.28;;;20.33;;
1467;SDS011;727;48.892;9.544;2023-01-26T03:39:29;28.83;;;18.35;;
1467;SDS011;727;48.892;9.544;2023-01-26T03:42:13;36.38;;;20.05;;
1467;SDS011;727;48.892;9.544;2023-01-26T03:44:58;35.05;;;18.38;;
1467;SDS011;727;48.892;9.544;2023-01-26T03:47:43;28.30;;;16.67;;
1467;SDS011;727;48.892;9.544;2023-01-26T03:50:27;32.03;;;18.52;;
1467;SDS011;727;48.892;9.544;2023-01-26T03:53:12;27.05;;;16.00;;
1467;SDS011;727;48.892;9.544;2023-01-26T03:55:57;31.00;;;17.60;;
1467;SDS011;727;48.892;9.544;2023-01-26T03:58:46;30.33;;;17.27;;
1467;SDS011;727;48.892;9.544;2023-01-26T04:01:15;31.88;;;17.50;;
1467;SDS011;727;48.892;9.544;2023-01-26T04:03:45;32.90;;;17.77;;
1467;SDS011;727;48.892;9.544;2023-01-26T04:06:30;28.75;;;17.17;;
1467;SDS011;727;48.892;9.544;2023-01-26T04:09:15;26.92;;;14.70;;
1467;SDS011;727;48.892;9.544;2023-01-26T04:11:42;26.67;;;14.10;;
1467;SDS011;727;48.892;9.544;2023-01-26T04:14:10;25.40;;;13.90;;
1467;SDS011;727;48.892;9.544;2023-01-26T04:16:56;22.40;;;13.07;;
1467;SDS011;727;48.892;9.544;2023-01-26T04:19:40;22.08;;;13.40;;
1467;SDS011;727;48.892;9.544;2023-01-26T04:22:25;28.63;;;15.63;;
1467;SDS011;727;48.892;9.544;2023-01-26T04:24:52;23.73;;;13.18;;
1467;SDS011;727;48.892;9.544;2023-01-26T04:27:19;26.63;;;14.77;;
1467;SDS011;727;48.892;9.544;2023-01-26T04:29:46;22.13;;;14.30;;
1467;SDS011;727;48.892;9.544;2023-01-26T04:32:14;20.80;;;13.90;;
1467;SDS011;727;48.892;9.544;2023-01-26T04:34:40;25.90;;;13.45;;
1467;SDS011;727;48.892;9.544;2023-01-26T04:37:07;20.88;;;12.00;;
1467;SDS011;727;48.892;9.544;2023-01-26T04:39:35;19.80;;;12.02;;
1467;SDS011;727;48.892;9.544;2023-01-26T04:42:02;21.98;;;12.55;;
1467;SDS011;727;48.892;9.544;2023-01-26T04:44:29;29.45;;;15.85;;
1467;SDS011;727;48.892;9.544;2023-01-26T04:46:55;26.13;;;15.15;;
1467;SDS011;727;48.892;9.544;2023-01-26T04:49:24;22.20;;;13.45;;
1467;SDS011;727;48.892;9.544;2023-01-26T04:51:51;20.63;;;13.25;;
1467;SDS011;727;48.892;9.544;2023-01-26T04:54:17;23.48;;;13.15;;
1467;SDS011;727;48.892;9.544;2023-01-26T04:56:44;25.30;;;13.98;;
1467;SDS011;727;48.892;9.544;2023-01-26T04:59:11;23.65;;;14.55;;
1467;SDS011;727;48.892;9.544;2023-01-26T05:01:38;25.13;;;14.07;;
1467;SDS011;727;48.892;9.544;2023-01-26T05:04:05;23.48;;;15.27;;
1467;SDS011;727;48.892;9.544;2023-01-26T05:06:33;27.60;;;14.75;;
1467;SDS011;727;48.892;9.544;2023-01-26T05:09:00;24.67;;;13.15;;
1467;SDS011;727;48.892;9.544;2023-01-26T05:11:27;23.88;;;15.55;;
1467;SDS011;727;48.892;9.544;2023-01-26T05:13:54;24.40;;;13.35;;
1467;SDS011;727;48.892;9.544;2023-01-26T05:16:21;23.42;;;13.10;;
1467;SDS011;727;48.892;9.544;2023-01-26T05:18:49;21.30;;;12.32;;
1467;SDS011;727;48.892;9.544;2023-01-26T05:21:16;25.02;;;13.40;;
1467;SDS011;727;48.892;9.544;2023-01-26T05:23:44;26.40;;;14.32;;
1467;SDS011;727;48.892;9.544;2023-01-26T05:26:11;22.98;;;12.93;;
1467;SDS011;727;48.892;9.544;2023-01-26T05:28:38;20.08;;;12.10;;
1467;SDS011;727;48.892;9.544;2023-01-26T05:31:05;21.90;;;12.15;;
1467;SDS011;727;48.892;9.544;2023-01-26T05:33:32;17.27;;;11.27;;
1467;SDS011;727;48.892;9.544;2023-01-26T05:36:01;20.38;;;12.48;;
1467;SDS011;727;48.892;9.544;2023-01-26T05:38:29;26.90;;;13.65;;
1467;SDS011;727;48.892;9.544;2023-01-26T05:40:58;26.30;;;14.85;;
1467;SDS011;727;48.892;9.544;2023-01-26T05:43:25;19.23;;;13.13;;
1467;SDS011;727;48.892;9.544;2023-01-26T05:45:52;25.48;;;15.85;;
1467;SDS011;727;48.892;9.544;2023-01-26T05:48:18;32.92;;;18.38;;
1467;SDS011;727;48.892;9.544;2023-01-26T05:50:45;27.42;;;16.05;;
1467;SDS011;727;48.892;9.544;2023-01-26T05:53:13;18.75;;;12.45;;
1467;SDS011;727;48.892;9.544;2023-01-26T05:55:40;29.27;;;14.13;;
1467;SDS011;727;48.892;9.544;2023-01-26T05:58:09;27.13;;;16.23;;
1467;SDS011;727;48.892;9.544;2023-01-26T06:00:36;25.13;;;15.35;;
1467;SDS011;727;48.892;9.544;2023-01-26T06:03:03;23.58;;;14.30;;
1467;SDS011;727;48.892;9.544;2023-01-26T06:05:30;25.45;;;18.60;;
1467;SDS011;727;48.892;9.544;2023-01-26T06:07:57;25.13;;;15.07;;
1467;SDS011;727;48.892;9.544;2023-01-26T06:10:24;25.25;;;14.02;;
1467;SDS011;727;48.892;9.544;2023-01-26T06:12:51;27.17;;;16.00;;
1467;SDS011;727;48.892;9.544;2023-01-26T06:15:19;25.48;;;15.25;;
1467;SDS011;727;48.892;9.544;2023-01-26T06:17:46;26.13;;;14.43;;
1467;SDS011;727;48.892;9.544;2023-01-26T06:20:13;24.65;;;14.48;;
1467;SDS011;727;48.892;9.544;2023-01-26T06:22:40;29.05;;;16.13;;
1467;SDS011;727;48.892;9.544;2023-01-26T06:25:07;22.55;;;13.95;;
1467;SDS011;727;48.892;9.544;2023-01-26T06:27:34;20.85;;;13.38;;
1467;SDS011;727;48.892;9.544;2023-01-26T06:30:06;22.52;;;14.43;;
1467;SDS011;727;48.892;9.544;2023-01-26T06:32:35;27.60;;;15.18;;
1467;SDS011;727;48.892;9.544;2023-01-26T06:35:02;20.75;;;12.52;;
1467;SDS011;727;48.892;9.544;2023-01-26T06:37:31;19.42;;;11.30;;
1467;SDS011;727;48.892;9.544;2023-01-26T06:39:58;19.40;;;11.57;;
1467;SDS011;727;48.892;9.544;2023-01-26T06:42:25;18.17;;;10.98;;
1467;SDS011;727;48.892;9.544;2023-01-26T06:44:52;18.40;;;12.35;;
1467;SDS011;727;48.892;9.544;2023-01-26T06:47:19;20.27;;;12.18;;
1467;SDS011;727;48.892;9.544;2023-01-26T06:49:47;21.08;;;13.10;;
1467;SDS011;727;48.892;9.544;2023-01-26T06:52:26;22.40;;;13.23;;
1467;SDS011;727;48.892;9.544;2023-01-26T06:54:56;22.63;;;12.75;;
1467;SDS011;727;48.892;9.544;2023-01-26T06:57:24;25.20;;;11.55;;
1467;SDS011;727;48.892;9.544;2023-01-26T06:59:51;17.80;;;12.23;;
1467;SDS011;727;48.892;9.544;2023-01-26T07:02:18;21.15;;;12.82;;
1467;SDS011;727;48.892;9.544;2023-01-26T07:04:48;13.50;;;10.38;;
1467;SDS011;727;48.892;9.544;2023-01-26T07:07:15;17.13;;;10.68;;
1467;SDS011;727;48.892;9.544;2023-01-26T07:09:42;20.58;;;12.60;;
1467;SDS011;727;48.892;9.544;2023-01-26T07:12:09;27.35;;;12.80;;
1467;SDS011;727;48.892;9.544;2023-01-26T07:14:36;21.77;;;12.65;;
1467;SDS011;727;48.892;9.544;2023-01-26T07:17:02;21.25;;;12.50;;
1467;SDS011;727;48.892;9.544;2023-01-26T07:19:29;20.20;;;13.13;;
1467;SDS011;727;48.892;9.544;2023-01-26T07:21:59;18.10;;;10.63;;
1467;SDS011;727;48.892;9.544;2023-01-26T07:24:26;22.23;;;11.40;;
1467;SDS011;727;48.892;9.544;2023-01-26T07:26:53;19.63;;;12.07;;
1467;SDS011;727;48.892;9.544;2023-01-26T07:29:21;21.65;;;11.35;;
1467;SDS011;727;48.892;9.544;2023-01-26T07:31:48;17.92;;;12.32;;
1467;SDS011;727;48.892;9.544;2023-01-26T07:34:15;17.45;;;10.02;;
1467;SDS011;727;48.892;9.544;2023-01-26T07:36:42;20.08;;;12.85;;
1467;SDS011;727;48.892;9.544;2023-01-26T07:39:10;16.02;;;11.00;;
1467;SDS011;727;48.892;9.544;2023-01-26T07:41:37;19.10;;;11.75;;
1467;SDS011;727;48.892;9.544;2023-01-26T07:44:07;19.13;;;11.88;;
1467;SDS011;727;48.892;9.544;2023-01-26T07:46:35;18.95;;;13.50;;
1467;SDS011;727;48.892;9.544;2023-01-26T07:49:01;17.77;;;10.43;;
1467;SDS011;727;48.892;9.544;2023-01-26T07:51:28;20.40;;;10.98;;
1467;SDS011;727;48.892;9.544;2023-01-26T07:53:55;17.38;;;9.85;;
1467;SDS011;727;48.892;9.544;2023-01-26T07:56:24;16.38;;;10.55;;
1467;SDS011;727;48.892;9.544;2023-01-26T07:58:51;15.75;;;9.68;;
1467;SDS011;727;48.892;9.544;2023-01-26T08:01:18;12.98;;;9.07;;
1467;SDS011;727;48.892;9.544;2023-01-26T08:03:48;15.85;;;9.73;;
1467;SDS011;727;48.892;9.544;2023-01-26T08:06:15;14.32;;;10.75;;
1467;SDS011;727;48.892;9.544;2023-01-26T08:08:43;15.43;;;10.55;;
1467;SDS011;727;48.892;9.544;2023-01-26T08:11:10;17.35;;;10.90;;
1467;SDS011;727;48.892;9.544;2023-01-26T08:13:39;22.08;;;12.05;;
1467;SDS011;727;48.892;9.544;2023-01-26T08:16:06;20.77;;;12.15;;
1467;SDS011;727;48.892;9.544;2023-01-26T08:18:36;24.08;;;13.60;;
1467;SDS011;727;48.892;9.544;2023-01-26T08:21:03;18.35;;;11.40;;
1467;SDS011;727;48.892;9.544;2023-01-26T08:23:30;20.42;;;13.73;;
1467;SDS011;727;48.892;9.544;2023-01-26T08:25:59;20.73;;;11.73;;
1467;SDS011;727;48.892;9.544;2023-01-26T08:28:26;20.55;;;11.80;;
1467;SDS011;727;48.892;9.544;2023-01-26T08:30:54;17.10;;;10.88;;
1467;SDS011;727;48.892;9.544;2023-01-26T08:33:21;16.63;;;10.23;;
1467;SDS011;727;48.892;9.544;2023-01-26T08:35:48;27.73;;;13.80;;
1467;SDS011;727;48.892;9.544;2023-01-26T08:38:15;23.08;;;12.60;;
1467;SDS011;727;48.892;9.544;2023-01-26T08:40:42;25.70;;;12.27;;
1467;SDS011;727;48.892;9.544;2023-01-26T08:43:08;20.02;;;12.43;;
1467;SDS011;727;48.892;9.544;2023-01-26T08:45:35;19.60;;;13.40;;
1467;SDS011;727;48.892;9.544;2023-01-26T08:48:04;16.70;;;11.98;;
1467;SDS011;727;48.892;9.544;2023-01-26T08:50:31;16.58;;;11.13;;
1467;SDS011;727;48.892;9.544;2023-01-26T08:52:58;20.23;;;11.10;;
1467;SDS011;727;48.892;9.544;2023-01-26T08:55:24;15.65;;;10.35;;
1467;SDS011;727;48.892;9.544;2023-01-26T08:57:52;16.80;;;10.98;;
1467;SDS011;727;48.892;9.544;2023-01-26T09:00:21;30.00;;;18.70;;
1467;SDS011;727;48.892;9.544;2023-01-26T09:02:48;15.15;;;11.52;;
1467;SDS011;727;48.892;9.544;2023-01-26T09:05:17;17.88;;;11.43;;
1467;SDS011;727;48.892;9.544;2023-01-26T09:07:44;18.83;;;12.40;;
1467;SDS011;727;48.892;9.544;2023-01-26T09:10:10;13.70;;;10.90;;
1467;SDS011;727;48.892;9.544;2023-01-26T09:12:38;17.20;;;11.68;;
1467;SDS011;727;48.892;9.544;2023-01-26T09:15:05;15.32;;;11.13;;
1467;SDS011;727;48.892;9.544;2023-01-26T09:17:32;22.02;;;13.32;;
1467;SDS011;727;48.892;9.544;2023-01-26T09:19:59;20.75;;;12.57;;
1467;SDS011;727;48.892;9.544;2023-01-26T09:22:28;16.70;;;11.80;;
1467;SDS011;727;48.892;9.544;2023-01-26T09:24:54;15.82;;;11.32;;
1467;SDS011;727;48.892;9.544;2023-01-26T09:27:21;16.90;;;11.07;;
1467;SDS011;727;48.892;9.544;2023-01-26T09:29:48;19.60;;;12.57;;
1467;SDS011;727;48.892;9.544;2023-01-26T09:32:16;16.77;;;12.25;;
1467;SDS011;727;48.892;9.544;2023-01-26T09:34:43;16.23;;;11.30;;
1467;SDS011;727;48.892;9.544;2023-01-26T09:37:10;16.60;;;10.40;;
1467;SDS011;727;48.892;9.544;2023-01-26T09:39:38;18.55;;;10.55;;
1467;SDS011;727;48.892;9.544;2023-01-26T09:45:03;19.90;;;10.77;;
1467;SDS011;727;48.892;9.544;2023-01-26T09:47:53;21.70;;;13.85;;
1467;SDS011;727;48.892;9.544;2023-01-26T09:50:28;18.40;;;10.43;;
1467;SDS011;727;48.892;9.544;2023-01-26T09:53:01;18.58;;;11.60;;
1467;SDS011;727;48.892;9.544;2023-01-26T09:55:33;19.00;;;10.90;;
1467;SDS011;727;48.892;9.544;2023-01-26T09:58:02;15.00;;;10.55;;
1467;SDS011;727;48.892;9.544;2023-01-26T10:00:31;18.63;;;11.38;;
1467;SDS011;727;48.892;9.544;2023-01-26T10:03:04;26.30;;;12.45;;
1467;SDS011;727;48.892;9.544;2023-01-26T10:05:40;22.73;;;12.95;;
1467;SDS011;727;48.892;9.544;2023-01-26T10:08:11;16.95;;;9.80;;
1467;SDS011;727;48.892;9.544;2023-01-26T10:10:43;15.90;;;9.80;;
1467;SDS011;727;48.892;9.544;2023-01-26T10:13:14;17.55;;;11.10;;
1467;SDS011;727;48.892;9.544;2023-01-26T10:15:46;18.60;;;11.40;;
1467;SDS011;727;48.892;9.544;2023-01-26T10:18:17;20.63;;;11.07;;
1467;SDS011;727;48.892;9.544;2023-01-26T10:20:49;20.60;;;14.40;;
1467;SDS011;727;48.892;9.544;2023-01-26T10:23:18;20.73;;;13.40;;
1467;SDS011;727;48.892;9.544;2023-01-26T10:25:50;17.00;;;11.23;;
1467;SDS011;727;48.892;9.544;2023-01-26T10:28:19;24.25;;;14.18;;
1467;SDS011;727;48.892;9.544;2023-01-26T10:30:54;19.90;;;12.43;;
1467;SDS011;727;48.892;9.544;2023-01-26T10:33:24;18.60;;;11.40;;
1467;SDS011;727;48.892;9.544;2023-01-26T10:35:56;19.30;;;10.65;;
1467;SDS011;727;48.892;9.544;2023-01-26T10:41:23;19.83;;;11.82;;
1467;SDS011;727;48.892;9.544;2023-01-26T10:43:52;18.83;;;10.40;;
1467;SDS011;727;48.892;9.544;2023-01-26T10:46:24;13.77;;;9.75;;
1467;SDS011;727;48.892;9.544;2023-01-26T10:48:54;17.92;;;10.30;;
1467;SDS011;727;48.892;9.544;2023-01-26T10:51:23;16.58;;;11.50;;
1467;SDS011;727;48.892;9.544;2023-01-26T10:56:55;16.70;;;11.02;;
1467;SDS011;727;48.892;9.544;2023-01-26T10:59:27;14.82;;;10.45;;
1467;SDS011;727;48.892;9.544;2023-01-26T11:01:58;17.90;;;10.93;;
1467;SDS011;727;48.892;9.544;2023-01-26T11:04:27;18.17;;;10.82;;
1467;SDS011;727;48.892;9.544;2023-01-26T11:06:54;13.57;;;10.07;;
1467;SDS011;727;48.892;9.544;2023-01-26T11:09:24;19.70;;;11.88;;
1467;SDS011;727;48.892;9.544;2023-01-26T11:12:00;18.10;;;11.63;;
1467;SDS011;727;48.892;9.544;2023-01-26T11:14:29;21.00;;;12.23;;
1467;SDS011;727;48.892;9.544;2023-01-26T11:17:04;19.90;;;13.68;;
1467;SDS011;727;48.892;9.544;2023-01-26T11:19:42;23.75;;;14.55;;
1467;SDS011;727;48.892;9.544;2023-01-26T11:22:32;24.08;;;13.50;;
1467;SDS011;727;48.892;9.544;2023-01-26T11:25:10;23.10;;;14.30;;
1467;SDS011;727;48.892;9.544;2023-01-26T11:27:48;21.33;;;12.32;;
1467;SDS011;727;48.892;9.544;2023-01-26T11:30:31;16.48;;;11.45;;
1467;SDS011;727;48.892;9.544;2023-01-26T11:33:11;15.77;;;10.60;;
1467;SDS011;727;48.892;9.544;2023-01-26T11:35:46;19.33;;;11.95;;
1467;SDS011;727;48.892;9.544;2023-01-26T11:38:25;22.95;;;11.95;;
1467;SDS011;727;48.892;9.544;2023-01-26T11:41:01;20.70;;;11.27;;
1467;SDS011;727;48.892;9.544;2023-01-26T11:43:52;18.10;;;11.35;;
1467;SDS011;727;48.892;9.544;2023-01-26T11:46:51;16.92;;;11.50;;
1467;SDS011;727;48.892;9.544;2023-01-26T11:52:30;21.60;;;11.88;;
1467;SDS011;727;48.892;9.544;2023-01-26T11:55:06;17.77;;;10.80;;
1467;SDS011;727;48.892;9.544;2023-01-26T11:57:45;24.30;;;13.50;;
1467;SDS011;727;48.892;9.544;2023-01-26T12:00:24;16.83;;;10.23;;
1467;SDS011;727;48.892;9.544;2023-01-26T12:02:58;15.77;;;11.85;;
1467;SDS011;727;48.892;9.544;2023-01-26T12:05:29;13.73;;;9.23;;
1467;SDS011;727;48.892;9.544;2023-01-26T12:08:00;15.63;;;10.32;;
1467;SDS011;727;48.892;9.544;2023-01-26T12:10:32;13.43;;;9.63;;
1467;SDS011;727;48.892;9.544;2023-01-26T12:13:06;14.63;;;9.18;;
1467;SDS011;727;48.892;9.544;2023-01-26T12:15:38;15.70;;;10.27;;
1467;SDS011;727;48.892;9.544;2023-01-26T12:18:13;17.80;;;10.60;;
1467;SDS011;727;48.892;9.544;2023-01-26T12:20:48;19.92;;;12.15;;
1467;SDS011;727;48.892;9.544;2023-01-26T12:23:22;17.35;;;11.68;;
1467;SDS011;727;48.892;9.544;2023-01-26T12:25:55;14.52;;;9.98;;
1467;SDS011;727;48.892;9.544;2023-01-26T12:28:26;17.42;;;9.70;;
1467;SDS011;727;48.892;9.544;2023-01-26T12:31:01;13.45;;;9.32;;
1467;SDS011;727;48.892;9.544;2023-01-26T12:33:32;16.65;;;11.70;;
1467;SDS011;727;48.892;9.544;2023-01-26T12:36:03;11.20;;;8.05;;
1467;SDS011;727;48.892;9.544;2023-01-26T12:38:43;12.63;;;8.95;;
1467;SDS011;727;48.892;9.544;2023-01-26T12:41:21;12.40;;;8.82;;
1467;SDS011;727;48.892;9.544;2023-01-26T12:44:02;12.40;;;8.65;;
1467;SDS011;727;48.892;9.544;2023-01-26T12:46:43;19.60;;;13.43;;
1467;SDS011;727;48.892;9.544;2023-01-26T12:49:16;19.95;;;12.40;;
1467;SDS011;727;48.892;9.544;2023-01-26T12:51:49;19.08;;;12.55;;
1467;SDS011;727;48.892;9.544;2023-01-26T12:54:19;24.00;;;12.93;;
1467;SDS011;727;48.892;9.544;2023-01-26T12:56:53;17.90;;;13.85;;
1467;SDS011;727;48.892;9.544;2023-01-26T12:59:25;23.27;;;13.75;;
1467;SDS011;727;48.892;9.544;2023-01-26T13:01:59;21.33;;;14.10;;
1467;SDS011;727;48.892;9.544;2023-01-26T13:04:34;19.55;;;14.20;;
1467;SDS011;727;48.892;9.544;2023-01-26T13:07:02;19.02;;;11.68;;
1467;SDS011;727;48.892;9.544;2023-01-26T13:12:46;17.10;;;13.07;;
1467;SDS011;727;48.892;9.544;2023-01-26T13:15:14;17.42;;;11.27;;
1467;SDS011;727;48.892;9.544;2023-01-26T13:17:51;20.80;;;14.05;;
1467;SDS011;727;48.892;9.544;2023-01-26T13:26:17;21.73;;;13.85;;
1467;SDS011;727;48.892;9.544;2023-01-26T13:28:45;21.65;;;13.60;;
1467;SDS011;727;48.892;9.544;2023-01-26T13:31:27;23.10;;;15.50;;
1467;SDS011;727;48.892;9.544;2023-01-26T13:34:04;55.53;;;27.58;;
1467;SDS011;727;48.892;9.544;2023-01-26T13:36:33;23.73;;;13.85;;
1467;SDS011;727;48.892;9.544;2023-01-26T13:39:04;20.77;;;12.77;;
1467;SDS011;727;48.892;9.544;2023-01-26T13:41:42;22.85;;;13.35;;
1467;SDS011;727;48.892;9.544;2023-01-26T13:44:12;16.10;;;11.27;;
1467;SDS011;727;48.892;9.544;2023-01-26T13:46:43;19.25;;;12.05;;
1467;SDS011;727;48.892;9.544;2023-01-26T13:49:24;17.58;;;12.25;;
1467;SDS011;727;48.892;9.544;2023-01-26T13:51:51;14.88;;;10.40;;
1467;SDS011;727;48.892;9.544;2023-01-26T13:54:18;13.57;;;9.40;;
1467;SDS011;727;48.892;9.544;2023-01-26T13:57:00;14.48;;;9.82;;
1467;SDS011;727;48.892;9.544;2023-01-26T13:59:28;14.27;;;9.82;;
1467;SDS011;727;48.892;9.544;2023-01-26T14:01:57;10.80;;;8.50;;
1467;SDS011;727;48.892;9.544;2023-01-26T14:04:26;12.38;;;9.23;;
1467;SDS011;727;48.892;9.544;2023-01-26T14:06:55;13.63;;;11.48;;
1467;SDS011;727;48.892;9.544;2023-01-26T14:09:24;16.02;;;10.98;;
1467;SDS011;727;48.892;9.544;2023-01-26T14:11:54;14.18;;;9.90;;
1467;SDS011;727;48.892;9.544;2023-01-26T14:14:24;16.13;;;10.15;;
1467;SDS011;727;48.892;9.544;2023-01-26T14:16:52;17.85;;;11.48;;
1467;SDS011;727;48.892;9.544;2023-01-26T14:19:22;17.60;;;11.77;;
1467;SDS011;727;48.892;9.544;2023-01-26T14:21:51;15.63;;;9.68;;
1467;SDS011;727;48.892;9.544;2023-01-26T14:24:24;16.13;;;12.00;;
1467;SDS011;727;48.892;9.544;2023-01-26T14:26:52;15.18;;;11.45;;
1467;SDS011;727;48.892;9.544;2023-01-26T14:29:19;18.13;;;12.45;;
1467;SDS011;727;48.892;9.544;2023-01-26T14:31:48;16.52;;;11.60;;
1467;SDS011;727;48.892;9.544;2023-01-26T14:34:17;16.90;;;10.77;;
1467;SDS011;727;48.892;9.544;2023-01-26T14:36:46;20.10;;;13.75;;
1467;SDS011;727;48.892;9.544;2023-01-26T14:39:17;20.35;;;12.77;;
1467;SDS011;727;48.892;9.544;2023-01-26T14:41:46;14.35;;;10.45;;
1467;SDS011;727;48.892;9.544;2023-01-26T14:44:14;21.23;;;13.25;;
1467;SDS011;727;48.892;9.544;2023-01-26T14:46:46;19.40;;;11.13;;
1467;SDS011;727;48.892;9.544;2023-01-26T14:49:19;18.20;;;11.52;;
1467;SDS011;727;48.892;9.544;2023-01-26T14:51:53;16.13;;;11.48;;
1467;SDS011;727;48.892;9.544;2023-01-26T14:54:26;20.88;;;13.80;;
1467;SDS011;727;48.892;9.544;2023-01-26T14:56:54;22.75;;;13.95;;
1467;SDS011;727;48.892;9.544;2023-01-26T14:59:24;18.35;;;13.32;;
1467;SDS011;727;48.892;9.544;2023-01-26T15:02:11;21.23;;;13.00;;
1467;SDS011;727;48.892;9.544;2023-01-26T15:04:40;26.23;;;15.60;;
1467;SDS011;727;48.892;9.544;2023-01-26T15:07:21;31.48;;;16.40;;
1467;SDS011;727;48.892;9.544;2023-01-26T15:09:58;21.77;;;14.27;;
1467;SDS011;727;48.892;9.544;2023-01-26T15:12:25;19.98;;;12.77;;
1467;SDS011;727;48.892;9.544;2023-01-26T15:14:54;21.25;;;13.43;;
1467;SDS011;727;48.892;9.544;2023-01-26T15:17:26;19.45;;;13.73;;
1467;SDS011;727;48.892;9.544;2023-01-26T15:20:01;22.17;;;13.40;;
1467;SDS011;727;48.892;9.544;2023-01-26T15:22:28;20.77;;;12.95;;
1467;SDS011;727;48.892;9.544;2023-01-26T15:25:01;21.08;;;12.35;;
1467;SDS011;727;48.892;9.544;2023-01-26T15:27:34;17.63;;;11.23;;
1467;SDS011;727;48.892;9.544;2023-01-26T15:30:02;17.73;;;11.82;;
1467;SDS011;727;48.892;9.544;2023-01-26T15:32:36;17.45;;;11.02;;
1467;SDS011;727;48.892;9.544;2023-01-26T15:35:05;17.85;;;13.00;;
1467;SDS011;727;48.892;9.544;2023-01-26T15:37:47;18.48;;;12.18;;
1467;SDS011;727;48.892;9.544;2023-01-26T15:40:15;20.60;;;12.23;;
1467;SDS011;727;48.892;9.544;2023-01-26T15:42:42;19.58;;;13.18;;
1467;SDS011;727;48.892;9.544;2023-01-26T15:45:15;20.48;;;11.77;;